Bowden, West Virginia
Current Conditions -  °F | °C
As of 5:51 PM on Thursday 18 Dec 2014 (Local Time) from KEKN Reporting Station
Overcast Overcast  
Wind Chill: 22°   Ceiling: 1700
Heat Index: 27°   Visibility: 10mi
Dew Point: 22°   Wind: 5mph
Humidity: 81%   Direction: 300°WNW
Pressure: 30.11"   Gusts: NA
Location:  38.91°N, 79.71°W
Report Text: KEKN 182251Z AUTO 30004KT 10SM OVC017 M03/M06 A3011 RMK AO2 SLP224 T10281056 TSNO
Loading
Personal Weather Stations






























Interactive Weather Map New forecast layout! Learn more

10-Day Weather Forecast

Advertisements
Track Severe Weather on mobile